sensor_id;sensor_type;location;lat;lon;timestamp;P1;durP1;ratioP1;P2;durP2;ratioP2
53519;SDS011;39397;53.204;5.778;2023-12-04T00:01:28;36.40;;;22.27;;
53519;SDS011;39397;53.204;5.778;2023-12-04T00:03:54;40.20;;;22.75;;
53519;SDS011;39397;53.204;5.778;2023-12-04T00:06:20;39.70;;;22.98;;
53519;SDS011;39397;53.204;5.778;2023-12-04T00:08:47;37.63;;;20.67;;
53519;SDS011;39397;53.204;5.778;2023-12-04T00:11:13;39.60;;;22.15;;
53519;SDS011;39397;53.204;5.778;2023-12-04T00:13:39;33.55;;;19.55;;
53519;SDS011;39397;53.204;5.778;2023-12-04T00:16:04;35.40;;;22.25;;
53519;SDS011;39397;53.204;5.778;2023-12-04T00:18:31;35.03;;;20.85;;
53519;SDS011;39397;53.204;5.778;2023-12-04T00:20:57;38.28;;;22.00;;
53519;SDS011;39397;53.204;5.778;2023-12-04T00:23:23;34.85;;;20.58;;
53519;SDS011;39397;53.204;5.778;2023-12-04T00:25:49;36.15;;;23.70;;
53519;SDS011;39397;53.204;5.778;2023-12-04T00:28:14;40.83;;;23.65;;
53519;SDS011;39397;53.204;5.778;2023-12-04T00:30:40;39.45;;;22.80;;
53519;SDS011;39397;53.204;5.778;2023-12-04T00:33:06;34.30;;;21.00;;
53519;SDS011;39397;53.204;5.778;2023-12-04T00:35:32;37.38;;;23.20;;
53519;SDS011;39397;53.204;5.778;2023-12-04T00:41:48;36.25;;;22.40;;
53519;SDS011;39397;53.204;5.778;2023-12-04T00:47:54;35.60;;;20.88;;
53519;SDS011;39397;53.204;5.778;2023-12-04T00:50:20;36.13;;;21.00;;
53519;SDS011;39397;53.204;5.778;2023-12-04T00:52:46;32.95;;;19.85;;
53519;SDS011;39397;53.204;5.778;2023-12-04T00:55:15;36.15;;;21.17;;
53519;SDS011;39397;53.204;5.778;2023-12-04T01:01:22;33.58;;;20.92;;
53519;SDS011;39397;53.204;5.778;2023-12-04T01:03:47;32.35;;;20.55;;
53519;SDS011;39397;53.204;5.778;2023-12-04T01:06:22;31.95;;;19.75;;
53519;SDS011;39397;53.204;5.778;2023-12-04T01:08:49;31.58;;;20.88;;
53519;SDS011;39397;53.204;5.778;2023-12-04T01:11:15;32.65;;;19.35;;
53519;SDS011;39397;53.204;5.778;2023-12-04T01:13:42;32.78;;;20.98;;
53519;SDS011;39397;53.204;5.778;2023-12-04T01:16:08;35.05;;;20.80;;
53519;SDS011;39397;53.204;5.778;2023-12-04T01:22:17;34.42;;;19.58;;
53519;SDS011;39397;53.204;5.778;2023-12-04T01:24:43;34.58;;;21.00;;
53519;SDS011;39397;53.204;5.778;2023-12-04T01:27:09;35.22;;;22.27;;
53519;SDS011;39397;53.204;5.778;2023-12-04T01:29:35;34.58;;;21.65;;
53519;SDS011;39397;53.204;5.778;2023-12-04T01:32:01;34.40;;;21.23;;
53519;SDS011;39397;53.204;5.778;2023-12-04T01:34:27;37.03;;;22.80;;
53519;SDS011;39397;53.204;5.778;2023-12-04T01:36:53;34.08;;;20.13;;
53519;SDS011;39397;53.204;5.778;2023-12-04T01:39:18;34.35;;;21.05;;
53519;SDS011;39397;53.204;5.778;2023-12-04T01:41:45;34.63;;;21.83;;
53519;SDS011;39397;53.204;5.778;2023-12-04T01:44:11;33.97;;;21.02;;
53519;SDS011;39397;53.204;5.778;2023-12-04T01:46:38;37.97;;;21.88;;
53519;SDS011;39397;53.204;5.778;2023-12-04T01:49:04;32.58;;;20.45;;
53519;SDS011;39397;53.204;5.778;2023-12-04T01:51:30;31.70;;;20.25;;
53519;SDS011;39397;53.204;5.778;2023-12-04T01:53:58;32.85;;;20.60;;
53519;SDS011;39397;53.204;5.778;2023-12-04T01:56:25;34.80;;;20.75;;
53519;SDS011;39397;53.204;5.778;2023-12-04T01:58:51;36.13;;;21.05;;
53519;SDS011;39397;53.204;5.778;2023-12-04T02:01:17;33.70;;;21.77;;
53519;SDS011;39397;53.204;5.778;2023-12-04T02:03:44;35.35;;;20.77;;
53519;SDS011;39397;53.204;5.778;2023-12-04T02:06:10;36.08;;;23.25;;
53519;SDS011;39397;53.204;5.778;2023-12-04T02:08:37;35.35;;;22.20;;
53519;SDS011;39397;53.204;5.778;2023-12-04T02:11:05;34.92;;;20.52;;
53519;SDS011;39397;53.204;5.778;2023-12-04T02:13:31;36.00;;;22.15;;
53519;SDS011;39397;53.204;5.778;2023-12-04T02:15:57;29.25;;;20.02;;
53519;SDS011;39397;53.204;5.778;2023-12-04T02:18:26;37.42;;;22.25;;
53519;SDS011;39397;53.204;5.778;2023-12-04T02:20:53;34.10;;;22.92;;
53519;SDS011;39397;53.204;5.778;2023-12-04T02:23:25;35.17;;;21.95;;
53519;SDS011;39397;53.204;5.778;2023-12-04T02:25:50;35.60;;;22.23;;
53519;SDS011;39397;53.204;5.778;2023-12-04T02:28:19;37.13;;;21.95;;
53519;SDS011;39397;53.204;5.778;2023-12-04T02:30:47;36.72;;;22.42;;
53519;SDS011;39397;53.204;5.778;2023-12-04T02:33:14;36.42;;;22.40;;
53519;SDS011;39397;53.204;5.778;2023-12-04T02:35:42;34.88;;;21.45;;
53519;SDS011;39397;53.204;5.778;2023-12-04T02:38:11;39.92;;;22.70;;
53519;SDS011;39397;53.204;5.778;2023-12-04T02:40:38;39.47;;;23.42;;
53519;SDS011;39397;53.204;5.778;2023-12-04T02:43:05;39.72;;;23.13;;
53519;SDS011;39397;53.204;5.778;2023-12-04T02:45:31;36.90;;;21.40;;
53519;SDS011;39397;53.204;5.778;2023-12-04T02:47:56;37.40;;;22.42;;
53519;SDS011;39397;53.204;5.778;2023-12-04T02:50:22;34.78;;;22.17;;
53519;SDS011;39397;53.204;5.778;2023-12-04T02:52:48;38.92;;;23.45;;
53519;SDS011;39397;53.204;5.778;2023-12-04T02:55:13;36.47;;;23.02;;
53519;SDS011;39397;53.204;5.778;2023-12-04T02:57:42;40.03;;;23.35;;
53519;SDS011;39397;53.204;5.778;2023-12-04T03:00:07;38.20;;;22.67;;
53519;SDS011;39397;53.204;5.778;2023-12-04T03:02:34;38.63;;;23.95;;
53519;SDS011;39397;53.204;5.778;2023-12-04T03:05:00;41.83;;;22.95;;
53519;SDS011;39397;53.204;5.778;2023-12-04T03:07:26;37.20;;;23.25;;
53519;SDS011;39397;53.204;5.778;2023-12-04T03:09:52;39.15;;;23.35;;
53519;SDS011;39397;53.204;5.778;2023-12-04T03:12:18;38.67;;;24.45;;
53519;SDS011;39397;53.204;5.778;2023-12-04T03:14:43;40.08;;;23.17;;
53519;SDS011;39397;53.204;5.778;2023-12-04T03:17:09;40.95;;;24.10;;
53519;SDS011;39397;53.204;5.778;2023-12-04T03:19:35;37.50;;;23.25;;
53519;SDS011;39397;53.204;5.778;2023-12-04T03:22:01;39.78;;;21.67;;
53519;SDS011;39397;53.204;5.778;2023-12-04T03:24:27;40.70;;;24.50;;
53519;SDS011;39397;53.204;5.778;2023-12-04T03:26:52;39.47;;;22.95;;
53519;SDS011;39397;53.204;5.778;2023-12-04T03:29:18;39.33;;;22.35;;
53519;SDS011;39397;53.204;5.778;2023-12-04T03:31:44;38.28;;;22.73;;
53519;SDS011;39397;53.204;5.778;2023-12-04T03:34:09;38.60;;;22.58;;
53519;SDS011;39397;53.204;5.778;2023-12-04T03:36:35;37.58;;;21.88;;
53519;SDS011;39397;53.204;5.778;2023-12-04T03:39:01;38.75;;;22.35;;
53519;SDS011;39397;53.204;5.778;2023-12-04T03:41:26;38.75;;;21.83;;
53519;SDS011;39397;53.204;5.778;2023-12-04T03:43:52;35.75;;;21.20;;
53519;SDS011;39397;53.204;5.778;2023-12-04T03:46:18;37.85;;;21.05;;
53519;SDS011;39397;53.204;5.778;2023-12-04T03:48:43;39.10;;;21.67;;
53519;SDS011;39397;53.204;5.778;2023-12-04T03:51:10;36.22;;;20.25;;
53519;SDS011;39397;53.204;5.778;2023-12-04T03:53:36;36.90;;;21.45;;
53519;SDS011;39397;53.204;5.778;2023-12-04T03:56:02;36.75;;;21.70;;
53519;SDS011;39397;53.204;5.778;2023-12-04T03:58:29;36.25;;;20.90;;
53519;SDS011;39397;53.204;5.778;2023-12-04T04:00:54;39.30;;;21.80;;
53519;SDS011;39397;53.204;5.778;2023-12-04T04:03:20;33.17;;;18.98;;
53519;SDS011;39397;53.204;5.778;2023-12-04T04:05:46;36.95;;;20.63;;
53519;SDS011;39397;53.204;5.778;2023-12-04T04:08:11;36.17;;;19.80;;
53519;SDS011;39397;53.204;5.778;2023-12-04T04:10:37;31.92;;;18.05;;
53519;SDS011;39397;53.204;5.778;2023-12-04T04:13:03;36.40;;;19.58;;
53519;SDS011;39397;53.204;5.778;2023-12-04T04:15:28;34.90;;;19.48;;
53519;SDS011;39397;53.204;5.778;2023-12-04T04:17:54;35.38;;;18.75;;
53519;SDS011;39397;53.204;5.778;2023-12-04T04:20:20;35.70;;;19.15;;
53519;SDS011;39397;53.204;5.778;2023-12-04T04:22:47;34.70;;;19.95;;
53519;SDS011;39397;53.204;5.778;2023-12-04T04:25:14;37.53;;;20.38;;
53519;SDS011;39397;53.204;5.778;2023-12-04T04:27:39;33.38;;;19.55;;
53519;SDS011;39397;53.204;5.778;2023-12-04T04:30:05;34.63;;;20.48;;
53519;SDS011;39397;53.204;5.778;2023-12-04T04:32:31;36.58;;;20.80;;
53519;SDS011;39397;53.204;5.778;2023-12-04T04:34:57;33.08;;;18.52;;
53519;SDS011;39397;53.204;5.778;2023-12-04T04:37:23;30.08;;;18.30;;
53519;SDS011;39397;53.204;5.778;2023-12-04T04:39:48;33.20;;;18.23;;
53519;SDS011;39397;53.204;5.778;2023-12-04T04:42:14;31.20;;;17.92;;
53519;SDS011;39397;53.204;5.778;2023-12-04T04:44:40;31.50;;;17.33;;
53519;SDS011;39397;53.204;5.778;2023-12-04T04:47:06;29.20;;;17.27;;
53519;SDS011;39397;53.204;5.778;2023-12-04T04:49:32;31.52;;;17.88;;
53519;SDS011;39397;53.204;5.778;2023-12-04T04:51:57;31.00;;;17.88;;
53519;SDS011;39397;53.204;5.778;2023-12-04T04:54:23;28.85;;;17.00;;
53519;SDS011;39397;53.204;5.778;2023-12-04T04:56:49;31.65;;;17.13;;
53519;SDS011;39397;53.204;5.778;2023-12-04T04:59:14;28.70;;;17.60;;
53519;SDS011;39397;53.204;5.778;2023-12-04T05:01:40;29.85;;;17.65;;
53519;SDS011;39397;53.204;5.778;2023-12-04T05:04:06;27.95;;;15.93;;
53519;SDS011;39397;53.204;5.778;2023-12-04T05:06:31;32.45;;;18.48;;
53519;SDS011;39397;53.204;5.778;2023-12-04T05:08:57;28.08;;;17.50;;
53519;SDS011;39397;53.204;5.778;2023-12-04T05:11:23;31.60;;;18.38;;
53519;SDS011;39397;53.204;5.778;2023-12-04T05:13:49;30.00;;;16.50;;
53519;SDS011;39397;53.204;5.778;2023-12-04T05:16:14;29.58;;;17.10;;
53519;SDS011;39397;53.204;5.778;2023-12-04T05:18:40;29.45;;;16.55;;
53519;SDS011;39397;53.204;5.778;2023-12-04T05:21:09;25.85;;;16.08;;
53519;SDS011;39397;53.204;5.778;2023-12-04T05:23:36;27.20;;;16.05;;
53519;SDS011;39397;53.204;5.778;2023-12-04T05:26:02;27.48;;;15.68;;
53519;SDS011;39397;53.204;5.778;2023-12-04T05:28:28;27.77;;;15.50;;
53519;SDS011;39397;53.204;5.778;2023-12-04T05:30:54;25.70;;;15.27;;
53519;SDS011;39397;53.204;5.778;2023-12-04T05:33:20;25.98;;;14.73;;
53519;SDS011;39397;53.204;5.778;2023-12-04T05:35:48;25.02;;;15.05;;
53519;SDS011;39397;53.204;5.778;2023-12-04T05:38:16;26.42;;;15.32;;
53519;SDS011;39397;53.204;5.778;2023-12-04T05:40:42;25.65;;;15.73;;
53519;SDS011;39397;53.204;5.778;2023-12-04T05:43:08;26.88;;;16.08;;
53519;SDS011;39397;53.204;5.778;2023-12-04T05:45:35;23.83;;;15.00;;
53519;SDS011;39397;53.204;5.778;2023-12-04T05:48:01;27.67;;;15.98;;
53519;SDS011;39397;53.204;5.778;2023-12-04T05:50:27;25.48;;;15.77;;
53519;SDS011;39397;53.204;5.778;2023-12-04T05:52:53;23.95;;;15.50;;
53519;SDS011;39397;53.204;5.778;2023-12-04T05:55:19;24.98;;;15.25;;
53519;SDS011;39397;53.204;5.778;2023-12-04T05:57:45;26.20;;;16.05;;
53519;SDS011;39397;53.204;5.778;2023-12-04T06:00:11;24.15;;;15.60;;
53519;SDS011;39397;53.204;5.778;2023-12-04T06:02:43;27.15;;;15.90;;
53519;SDS011;39397;53.204;5.778;2023-12-04T06:05:10;27.13;;;14.38;;
53519;SDS011;39397;53.204;5.778;2023-12-04T06:07:36;25.30;;;13.73;;
53519;SDS011;39397;53.204;5.778;2023-12-04T06:10:02;23.98;;;14.60;;
53519;SDS011;39397;53.204;5.778;2023-12-04T06:12:31;23.27;;;14.48;;
53519;SDS011;39397;53.204;5.778;2023-12-04T06:14:57;24.80;;;13.85;;
53519;SDS011;39397;53.204;5.778;2023-12-04T06:17:26;22.13;;;14.27;;
53519;SDS011;39397;53.204;5.778;2023-12-04T06:19:52;25.95;;;14.57;;
53519;SDS011;39397;53.204;5.778;2023-12-04T06:22:18;24.35;;;14.30;;
53519;SDS011;39397;53.204;5.778;2023-12-04T06:24:46;22.70;;;13.63;;
53519;SDS011;39397;53.204;5.778;2023-12-04T06:27:16;22.70;;;13.80;;
53519;SDS011;39397;53.204;5.778;2023-12-04T06:29:47;26.60;;;15.48;;
53519;SDS011;39397;53.204;5.778;2023-12-04T06:32:14;21.90;;;13.30;;
53519;SDS011;39397;53.204;5.778;2023-12-04T06:34:40;23.05;;;14.13;;
53519;SDS011;39397;53.204;5.778;2023-12-04T06:37:09;21.55;;;12.95;;
53519;SDS011;39397;53.204;5.778;2023-12-04T06:39:36;23.88;;;13.75;;
53519;SDS011;39397;53.204;5.778;2023-12-04T06:42:07;23.38;;;14.57;;
53519;SDS011;39397;53.204;5.778;2023-12-04T06:44:33;21.95;;;12.27;;
53519;SDS011;39397;53.204;5.778;2023-12-04T06:47:00;21.52;;;13.98;;
53519;SDS011;39397;53.204;5.778;2023-12-04T06:49:30;24.60;;;13.30;;
53519;SDS011;39397;53.204;5.778;2023-12-04T06:51:57;24.67;;;13.68;;
53519;SDS011;39397;53.204;5.778;2023-12-04T06:54:23;24.95;;;13.38;;
53519;SDS011;39397;53.204;5.778;2023-12-04T06:56:49;24.52;;;14.30;;
53519;SDS011;39397;53.204;5.778;2023-12-04T06:59:20;23.08;;;14.25;;
53519;SDS011;39397;53.204;5.778;2023-12-04T07:01:46;22.10;;;13.00;;
53519;SDS011;39397;53.204;5.778;2023-12-04T07:04:12;20.33;;;12.55;;
53519;SDS011;39397;53.204;5.778;2023-12-04T07:06:38;23.52;;;12.77;;
53519;SDS011;39397;53.204;5.778;2023-12-04T07:09:04;23.05;;;12.90;;
53519;SDS011;39397;53.204;5.778;2023-12-04T07:11:32;20.83;;;13.07;;
53519;SDS011;39397;53.204;5.778;2023-12-04T07:13:58;21.50;;;13.73;;
53519;SDS011;39397;53.204;5.778;2023-12-04T07:16:24;22.73;;;12.77;;
53519;SDS011;39397;53.204;5.778;2023-12-04T07:18:50;22.50;;;13.43;;
53519;SDS011;39397;53.204;5.778;2023-12-04T07:21:16;23.92;;;14.00;;
53519;SDS011;39397;53.204;5.778;2023-12-04T07:23:41;21.70;;;13.73;;
53519;SDS011;39397;53.204;5.778;2023-12-04T07:26:07;25.10;;;13.77;;
53519;SDS011;39397;53.204;5.778;2023-12-04T07:28:33;21.23;;;13.38;;
53519;SDS011;39397;53.204;5.778;2023-12-04T07:30:59;23.08;;;14.02;;
53519;SDS011;39397;53.204;5.778;2023-12-04T07:33:29;22.58;;;13.23;;
53519;SDS011;39397;53.204;5.778;2023-12-04T07:35:54;22.55;;;13.50;;
53519;SDS011;39397;53.204;5.778;2023-12-04T07:38:20;21.50;;;13.07;;
53519;SDS011;39397;53.204;5.778;2023-12-04T07:40:46;20.63;;;12.25;;
53519;SDS011;39397;53.204;5.778;2023-12-04T07:43:12;19.23;;;12.35;;
53519;SDS011;39397;53.204;5.778;2023-12-04T07:45:39;21.77;;;12.63;;
53519;SDS011;39397;53.204;5.778;2023-12-04T07:48:07;19.95;;;12.68;;
53519;SDS011;39397;53.204;5.778;2023-12-04T07:50:33;21.88;;;12.48;;
53519;SDS011;39397;53.204;5.778;2023-12-04T07:52:59;20.52;;;12.88;;
53519;SDS011;39397;53.204;5.778;2023-12-04T07:55:25;21.20;;;12.52;;
53519;SDS011;39397;53.204;5.778;2023-12-04T07:57:50;17.88;;;11.70;;
53519;SDS011;39397;53.204;5.778;2023-12-04T08:00:16;20.25;;;12.63;;
53519;SDS011;39397;53.204;5.778;2023-12-04T08:02:47;20.35;;;11.90;;
53519;SDS011;39397;53.204;5.778;2023-12-04T08:05:13;17.17;;;10.82;;
53519;SDS011;39397;53.204;5.778;2023-12-04T08:07:39;18.05;;;11.05;;
53519;SDS011;39397;53.204;5.778;2023-12-04T08:10:05;19.25;;;11.30;;
53519;SDS011;39397;53.204;5.778;2023-12-04T08:12:32;16.73;;;10.95;;
53519;SDS011;39397;53.204;5.778;2023-12-04T08:14:58;17.20;;;11.02;;
53519;SDS011;39397;53.204;5.778;2023-12-04T08:17:24;17.50;;;11.07;;
53519;SDS011;39397;53.204;5.778;2023-12-04T08:19:50;18.40;;;10.48;;
53519;SDS011;39397;53.204;5.778;2023-12-04T08:22:16;15.63;;;10.38;;
53519;SDS011;39397;53.204;5.778;2023-12-04T08:24:42;19.58;;;11.65;;
53519;SDS011;39397;53.204;5.778;2023-12-04T08:27:07;14.70;;;9.70;;
53519;SDS011;39397;53.204;5.778;2023-12-04T08:29:33;17.80;;;10.98;;
53519;SDS011;39397;53.204;5.778;2023-12-04T08:31:59;16.42;;;10.20;;
53519;SDS011;39397;53.204;5.778;2023-12-04T08:34:25;16.42;;;10.55;;
53519;SDS011;39397;53.204;5.778;2023-12-04T08:36:51;16.55;;;10.45;;
53519;SDS011;39397;53.204;5.778;2023-12-04T08:39:16;15.18;;;9.35;;
53519;SDS011;39397;53.204;5.778;2023-12-04T08:41:45;17.52;;;9.27;;
53519;SDS011;39397;53.204;5.778;2023-12-04T08:44:14;16.40;;;9.55;;
53519;SDS011;39397;53.204;5.778;2023-12-04T08:46:41;14.05;;;9.50;;
53519;SDS011;39397;53.204;5.778;2023-12-04T08:49:07;14.63;;;9.25;;
53519;SDS011;39397;53.204;5.778;2023-12-04T08:51:33;14.68;;;8.70;;
53519;SDS011;39397;53.204;5.778;2023-12-04T08:53:58;15.63;;;9.15;;
53519;SDS011;39397;53.204;5.778;2023-12-04T08:56:24;14.27;;;9.68;;
53519;SDS011;39397;53.204;5.778;2023-12-04T08:58:50;14.38;;;9.18;;
53519;SDS011;39397;53.204;5.778;2023-12-04T09:01:16;14.20;;;9.75;;
53519;SDS011;39397;53.204;5.778;2023-12-04T09:03:41;16.45;;;9.30;;
53519;SDS011;39397;53.204;5.778;2023-12-04T09:06:07;13.77;;;8.38;;
53519;SDS011;39397;53.204;5.778;2023-12-04T09:08:34;14.15;;;9.15;;
53519;SDS011;39397;53.204;5.778;2023-12-04T09:11:00;11.90;;;7.63;;
53519;SDS011;39397;53.204;5.778;2023-12-04T09:13:26;12.93;;;8.20;;
53519;SDS011;39397;53.204;5.778;2023-12-04T09:15:51;12.30;;;7.88;;
53519;SDS011;39397;53.204;5.778;2023-12-04T09:18:17;13.88;;;8.85;;
53519;SDS011;39397;53.204;5.778;2023-12-04T09:20:43;12.57;;;8.05;;
53519;SDS011;39397;53.204;5.778;2023-12-04T09:23:09;11.00;;;7.60;;
53519;SDS011;39397;53.204;5.778;2023-12-04T09:25:35;11.25;;;7.47;;
53519;SDS011;39397;53.204;5.778;2023-12-04T09:28:01;11.40;;;7.47;;
53519;SDS011;39397;53.204;5.778;2023-12-04T09:30:27;11.27;;;7.50;;
53519;SDS011;39397;53.204;5.778;2023-12-04T09:32:53;12.05;;;7.50;;
53519;SDS011;39397;53.204;5.778;2023-12-04T09:35:19;11.32;;;7.85;;
53519;SDS011;39397;53.204;5.778;2023-12-04T09:37:45;11.30;;;7.65;;
53519;SDS011;39397;53.204;5.778;2023-12-04T09:40:11;10.27;;;7.05;;
53519;SDS011;39397;53.204;5.778;2023-12-04T09:42:37;11.27;;;7.22;;
53519;SDS011;39397;53.204;5.778;2023-12-04T09:45:05;11.52;;;7.53;;
53519;SDS011;39397;53.204;5.778;2023-12-04T09:47:33;12.98;;;7.30;;
53519;SDS011;39397;53.204;5.778;2023-12-04T09:49:59;11.32;;;7.47;;
53519;SDS011;39397;53.204;5.778;2023-12-04T09:52:27;10.48;;;6.78;;
53519;SDS011;39397;53.204;5.778;2023-12-04T09:54:52;10.90;;;7.45;;
53519;SDS011;39397;53.204;5.778;2023-12-04T09:57:18;11.13;;;7.53;;
53519;SDS011;39397;53.204;5.778;2023-12-04T09:59:44;11.98;;;7.28;;
53519;SDS011;39397;53.204;5.778;2023-12-04T10:02:11;10.27;;;6.57;;
53519;SDS011;39397;53.204;5.778;2023-12-04T10:04:37;10.38;;;7.03;;
53519;SDS011;39397;53.204;5.778;2023-12-04T10:07:02;10.95;;;6.63;;
53519;SDS011;39397;53.204;5.778;2023-12-04T10:09:29;11.90;;;6.97;;
53519;SDS011;39397;53.204;5.778;2023-12-04T10:11:55;10.02;;;6.00;;
53519;SDS011;39397;53.204;5.778;2023-12-04T10:14:22;10.65;;;6.38;;
53519;SDS011;39397;53.204;5.778;2023-12-04T10:16:48;9.20;;;6.10;;
53519;SDS011;39397;53.204;5.778;2023-12-04T10:19:22;10.90;;;6.13;;
53519;SDS011;39397;53.204;5.778;2023-12-04T10:21:51;10.02;;;6.25;;
53519;SDS011;39397;53.204;5.778;2023-12-04T10:24:27;10.00;;;6.32;;
53519;SDS011;39397;53.204;5.778;2023-12-04T10:26:57;9.23;;;6.03;;
53519;SDS011;39397;53.204;5.778;2023-12-04T10:29:23;11.32;;;6.30;;
53519;SDS011;39397;53.204;5.778;2023-12-04T10:31:51;9.52;;;6.30;;
53519;SDS011;39397;53.204;5.778;2023-12-04T10:34:20;9.65;;;5.93;;
53519;SDS011;39397;53.204;5.778;2023-12-04T10:36:46;8.55;;;5.57;;
53519;SDS011;39397;53.204;5.778;2023-12-04T10:39:12;9.07;;;5.55;;
53519;SDS011;39397;53.204;5.778;2023-12-04T10:41:38;10.20;;;5.75;;
53519;SDS011;39397;53.204;5.778;2023-12-04T10:44:04;9.07;;;5.70;;
53519;SDS011;39397;53.204;5.778;2023-12-04T10:46:29;9.25;;;6.03;;
53519;SDS011;39397;53.204;5.778;2023-12-04T10:48:56;14.48;;;7.72;;
53519;SDS011;39397;53.204;5.778;2023-12-04T10:51:23;8.85;;;5.55;;
53519;SDS011;39397;53.204;5.778;2023-12-04T10:53:50;11.15;;;6.50;;
53519;SDS011;39397;53.204;5.778;2023-12-04T10:56:23;9.57;;;6.18;;
53519;SDS011;39397;53.204;5.778;2023-12-04T10:58:55;9.63;;;5.60;;
53519;SDS011;39397;53.204;5.778;2023-12-04T11:01:25;10.50;;;5.90;;
53519;SDS011;39397;53.204;5.778;2023-12-04T11:03:52;9.73;;;5.90;;
53519;SDS011;39397;53.204;5.778;2023-12-04T11:06:21;8.02;;;5.45;;
53519;SDS011;39397;53.204;5.778;2023-12-04T11:08:49;8.38;;;5.55;;
53519;SDS011;39397;53.204;5.778;2023-12-04T11:11:20;9.57;;;5.68;;
53519;SDS011;39397;53.204;5.778;2023-12-04T11:13:53;9.50;;;6.22;;
53519;SDS011;39397;53.204;5.778;2023-12-04T11:19:00;10.32;;;6.40;;
53519;SDS011;39397;53.204;5.778;2023-12-04T11:21:47;12.25;;;6.18;;
53519;SDS011;39397;53.204;5.778;2023-12-04T11:24:16;9.57;;;6.38;;
53519;SDS011;39397;53.204;5.778;2023-12-04T11:26:43;9.25;;;6.22;;
53519;SDS011;39397;53.204;5.778;2023-12-04T11:29:09;10.95;;;6.40;;
53519;SDS011;39397;53.204;5.778;2023-12-04T11:31:37;10.82;;;6.68;;
53519;SDS011;39397;53.204;5.778;2023-12-04T11:34:03;10.80;;;6.22;;
53519;SDS011;39397;53.204;5.778;2023-12-04T11:36:29;8.57;;;5.97;;
53519;SDS011;39397;53.204;5.778;2023-12-04T11:38:55;9.35;;;5.55;;
53519;SDS011;39397;53.204;5.778;2023-12-04T11:41:24;9.75;;;5.78;;
53519;SDS011;39397;53.204;5.778;2023-12-04T11:43:51;9.63;;;6.00;;
53519;SDS011;39397;53.204;5.778;2023-12-04T11:46:20;9.38;;;5.65;;
53519;SDS011;39397;53.204;5.778;2023-12-04T11:48:50;8.90;;;6.00;;
53519;SDS011;39397;53.204;5.778;2023-12-04T11:54:07;10.23;;;6.32;;
53519;SDS011;39397;53.204;5.778;2023-12-04T11:56:39;10.43;;;5.97;;
53519;SDS011;39397;53.204;5.778;2023-12-04T11:59:05;10.90;;;6.35;;
53519;SDS011;39397;53.204;5.778;2023-12-04T12:01:38;8.82;;;5.70;;
53519;SDS011;39397;53.204;5.778;2023-12-04T12:04:06;8.80;;;5.65;;
53519;SDS011;39397;53.204;5.778;2023-12-04T12:06:32;9.32;;;6.28;;
53519;SDS011;39397;53.204;5.778;2023-12-04T12:08:58;9.85;;;6.88;;
53519;SDS011;39397;53.204;5.778;2023-12-04T12:11:24;10.00;;;6.20;;
53519;SDS011;39397;53.204;5.778;2023-12-04T12:13:52;9.23;;;6.20;;
53519;SDS011;39397;53.204;5.778;2023-12-04T12:16:19;11.57;;;6.75;;
53519;SDS011;39397;53.204;5.778;2023-12-04T12:18:44;9.75;;;6.88;;
53519;SDS011;39397;53.204;5.778;2023-12-04T12:21:11;10.20;;;6.25;;
53519;SDS011;39397;53.204;5.778;2023-12-04T12:23:37;9.02;;;5.88;;
53519;SDS011;39397;53.204;5.778;2023-12-04T12:26:03;10.02;;;6.65;;
53519;SDS011;39397;53.204;5.778;2023-12-04T12:28:29;10.02;;;6.80;;
53519;SDS011;39397;53.204;5.778;2023-12-04T12:30:55;10.88;;;6.10;;
53519;SDS011;39397;53.204;5.778;2023-12-04T12:33:21;13.40;;;6.22;;
53519;SDS011;39397;53.204;5.778;2023-12-04T12:35:48;9.55;;;6.60;;
53519;SDS011;39397;53.204;5.778;2023-12-04T12:38:14;10.63;;;6.82;;
53519;SDS011;39397;53.204;5.778;2023-12-04T12:40:40;10.95;;;6.57;;
53519;SDS011;39397;53.204;5.778;2023-12-04T12:43:08;9.80;;;7.20;;
53519;SDS011;39397;53.204;5.778;2023-12-04T12:48:12;10.67;;;6.93;;
53519;SDS011;39397;53.204;5.778;2023-12-04T12:50:38;9.93;;;6.07;;
53519;SDS011;39397;53.204;5.778;2023-12-04T12:53:04;11.98;;;6.55;;
53519;SDS011;39397;53.204;5.778;2023-12-04T12:55:30;10.65;;;6.50;;
53519;SDS011;39397;53.204;5.778;2023-12-04T12:57:56;11.77;;;7.25;;
53519;SDS011;39397;53.204;5.778;2023-12-04T13:00:22;13.05;;;6.47;;
53519;SDS011;39397;53.204;5.778;2023-12-04T13:02:48;9.75;;;6.15;;
53519;SDS011;39397;53.204;5.778;2023-12-04T13:05:17;10.10;;;6.25;;
53519;SDS011;39397;53.204;5.778;2023-12-04T13:07:44;10.82;;;7.05;;
53519;SDS011;39397;53.204;5.778;2023-12-04T13:10:10;12.13;;;6.93;;
53519;SDS011;39397;53.204;5.778;2023-12-04T13:12:36;9.93;;;7.00;;
53519;SDS011;39397;53.204;5.778;2023-12-04T13:15:02;11.00;;;6.03;;
53519;SDS011;39397;53.204;5.778;2023-12-04T13:17:28;9.10;;;6.30;;
53519;SDS011;39397;53.204;5.778;2023-12-04T13:19:54;10.90;;;6.65;;
53519;SDS011;39397;53.204;5.778;2023-12-04T13:22:20;10.68;;;7.10;;
53519;SDS011;39397;53.204;5.778;2023-12-04T13:24:45;11.73;;;7.43;;
53519;SDS011;39397;53.204;5.778;2023-12-04T13:27:11;10.45;;;6.80;;
53519;SDS011;39397;53.204;5.778;2023-12-04T13:29:38;9.73;;;6.32;;
53519;SDS011;39397;53.204;5.778;2023-12-04T13:32:04;9.57;;;6.65;;
53519;SDS011;39397;53.204;5.778;2023-12-04T13:34:30;9.07;;;5.78;;
53519;SDS011;39397;53.204;5.778;2023-12-04T13:36:56;11.02;;;6.70;;
53519;SDS011;39397;53.204;5.778;2023-12-04T13:39:22;10.35;;;6.45;;
53519;SDS011;39397;53.204;5.778;2023-12-04T13:42:11;8.90;;;5.95;;
53519;SDS011;39397;53.204;5.778;2023-12-04T13:44:55;12.02;;;6.45;;
53519;SDS011;39397;53.204;5.778;2023-12-04T13:47:21;12.02;;;6.05;;
53519;SDS011;39397;53.204;5.778;2023-12-04T13:49:46;11.55;;;6.38;;
53519;SDS011;39397;53.204;5.778;2023-12-04T13:52:12;10.02;;;7.00;;
53519;SDS011;39397;53.204;5.778;2023-12-04T13:54:38;9.68;;;6.47;;
53519;SDS011;39397;53.204;5.778;2023-12-04T13:59:46;9.23;;;5.78;;
53519;SDS011;39397;53.204;5.778;2023-12-04T14:02:12;10.90;;;5.72;;
53519;SDS011;39397;53.204;5.778;2023-12-04T14:04:39;11.40;;;6.43;;
53519;SDS011;39397;53.204;5.778;2023-12-04T14:07:05;11.18;;;6.68;;
53519;SDS011;39397;53.204;5.778;2023-12-04T14:09:33;9.73;;;6.15;;
53519;SDS011;39397;53.204;5.778;2023-12-04T14:12:00;9.77;;;6.28;;
53519;SDS011;39397;53.204;5.778;2023-12-04T14:14:26;10.38;;;7.07;;
53519;SDS011;39397;53.204;5.778;2023-12-04T14:16:51;11.82;;;7.57;;
53519;SDS011;39397;53.204;5.778;2023-12-04T14:19:17;11.63;;;6.60;;
53519;SDS011;39397;53.204;5.778;2023-12-04T14:21:46;14.23;;;6.53;;
53519;SDS011;39397;53.204;5.778;2023-12-04T14:24:15;10.00;;;6.05;;
53519;SDS011;39397;53.204;5.778;2023-12-04T14:26:41;10.98;;;6.00;;
53519;SDS011;39397;53.204;5.778;2023-12-04T14:29:07;10.25;;;6.82;;
53519;SDS011;39397;53.204;5.778;2023-12-04T14:31:36;10.60;;;6.63;;
53519;SDS011;39397;53.204;5.778;2023-12-04T14:34:02;13.20;;;6.72;;
53519;SDS011;39397;53.204;5.778;2023-12-04T14:36:28;10.57;;;6.88;;
53519;SDS011;39397;53.204;5.778;2023-12-04T14:38:57;10.32;;;6.95;;
53519;SDS011;39397;53.204;5.778;2023-12-04T14:41:25;10.02;;;6.55;;
53519;SDS011;39397;53.204;5.778;2023-12-04T14:43:51;9.40;;;5.93;;
53519;SDS011;39397;53.204;5.778;2023-12-04T14:46:17;12.25;;;7.03;;
53519;SDS011;39397;53.204;5.778;2023-12-04T14:48:43;10.82;;;6.22;;
53519;SDS011;39397;53.204;5.778;2023-12-04T14:51:09;10.02;;;6.03;;